Map

Track Data

SID SEASON NUMBER BASIN SUBBASIN NAME ISO_TIME NATURE LAT LON WMO_WIND WMO_PRES WMO_AGENCY TRACK_TYPE DIST2LAND LANDFALL IFLAG USA_AGENCY USA_ATCF_ID USA_LAT USA_LON USA_RECORD USA_STATUS USA_WIND USA_PRES USA_SSHS USA_R34_NE USA_R34_SE USA_R34_SW USA_R34_NW USA_R50_NE USA_R50_SE USA_R50_SW USA_R50_NW USA_R64_NE USA_R64_SE USA_R64_SW USA_R64_NW USA_POCI USA_ROCI USA_RMW USA_EYE TOKYO_LAT TOKYO_LON TOKYO_GRADE TOKYO_WIND TOKYO_PRES TOKYO_R50_DIR TOKYO_R50_LONG TOKYO_R50_SHORT TOKYO_R30_DIR TOKYO_R30_LONG TOKYO_R30_SHORT TOKYO_LAND CMA_LAT CMA_LON CMA_CAT CMA_WIND CMA_PRES HKO_LAT HKO_LON HKO_CAT HKO_WIND HKO_PRES NEWDELHI_LAT NEWDELHI_LON NEWDELHI_GRADE NEWDELHI_WIND NEWDELHI_PRES NEWDELHI_CI NEWDELHI_DP NEWDELHI_POCI REUNION_LAT REUNION_LON REUNION_TYPE REUNION_WIND REUNION_PRES REUNION_TNUM REUNION_CI REUNION_RMW REUNION_R34_NE REUNION_R34_SE REUNION_R34_SW REUNION_R34_NW REUNION_R50_NE REUNION_R50_SE REUNION_R50_SW REUNION_R50_NW REUNION_R64_NE REUNION_R64_SE REUNION_R64_SW REUNION_R64_NW BOM_LAT BOM_LON BOM_TYPE BOM_WIND BOM_PRES BOM_TNUM BOM_CI BOM_RMW BOM_R34_NE BOM_R34_SE BOM_R34_SW BOM_R34_NW BOM_R50_NE BOM_R50_SE BOM_R50_SW BOM_R50_NW BOM_R64_NE BOM_R64_SE BOM_R64_SW BOM_R64_NW BOM_ROCI BOM_POCI BOM_EYE BOM_POS_METHOD BOM_PRES_METHOD NADI_LAT NADI_LON NADI_CAT NADI_WIND NADI_PRES WELLINGTON_LAT WELLINGTON_LON WELLINGTON_WIND WELLINGTON_PRES DS824_LAT DS824_LON DS824_STAGE DS824_WIND DS824_PRES TD9636_LAT TD9636_LON TD9636_STAGE TD9636_WIND TD9636_PRES TD9635_LAT TD9635_LON TD9635_WIND TD9635_PRES TD9635_ROCI NEUMANN_LAT NEUMANN_LON NEUMANN_CLASS NEUMANN_WIND NEUMANN_PRES MLC_LAT MLC_LON MLC_CLASS MLC_WIND MLC_PRES USA_GUST BOM_GUST BOM_GUST_PER REUNION_GUST REUNION_GUST_PER USA_SEAHGT USA_SEARAD_NE USA_SEARAD_SE USA_SEARAD_SW USA_SEARAD_NW STORM_SPEED STORM_DIR
1973057S31062 1973 26 SI MM JESSY 1973-02-25 12:00:00 ET -31.0000 62.1000 reunion spur-split 1251 1251 _____O______O_ -1 -31.0000 62.1000 99 9.90000 -31.0000 62.1000 EX 40 19 126
1973057S31062 1973 26 SI MM JESSY 1973-02-25 15:00:00 ET -31.5510 62.9841 spur-split 1347 1347 _____P______P_ -1 -31.5598 63.0594 99 -31.5598 63.0594 EX 40 19 126
1973057S31062 1973 26 SI MM JESSY 1973-02-25 18:00:00 ET -32.1000 63.9000 reunion spur-split 1434 1434 _____O______O_ -1 -32.1000 63.9000 99 9.90000 -32.1000 63.9000 EX 40 17 129
1973057S31062 1973 26 SI MM JESSY 1973-02-25 21:00:00 ET -32.6133 64.5519 spur-split 1514 1514 _____P______P_ -1 -32.6133 64.5519 99 -32.6133 64.5519 EX 40 15 132
1973057S31062 1973 26 SI MM JESSY 1973-02-26 00:00:00 ET -33.1000 65.2000 reunion spur-split 1590 1590 _____O______O_ -1 -33.1000 65.2000 99 9.90000 -33.1000 65.2000 EX 40 16 127
1973057S31062 1973 26 SI MM JESSY 1973-02-26 03:00:00 ET -33.6037 66.1211 spur-split 1680 1653 _____P______P_ -1 -33.6037 66.1211 99 -33.6037 66.1211 EX 40 17 121
1973057S31062 1973 26 SI MM JESSY 1973-02-26 06:00:00 ET -34.0000 67.0000 reunion spur-split 1653 1628 _____O______O_ -1 -34.0000 67.0000 5 9.90000 -34.0000 67.0000 EX 40 13 116
1973057S31062 1973 26 SI MM JESSY 1973-02-26 09:00:00 ET -34.1788 67.5619 spur-split 1627 1614 _____P______P_ -1 -34.1788 67.5619 5 -34.1788 67.5619 EX 40 9 110
1973057S31062 1973 26 SI MM JESSY 1973-02-26 12:00:00 ET -34.3000 68.0000 reunion spur-split 1614 1591 _____O______O_ -1 -34.3000 68.0000 99 9.90000 -34.3000 68.0000 EX 40 9 116
1973057S31062 1973 26 SI MM JESSY 1973-02-26 15:00:00 ET -34.5572 68.4922 spur-split 1579 1557 _____P______P_ -1 -34.5572 68.4922 99 -34.5572 68.4922 EX 40 10 121
1973057S31062 1973 26 SI MM JESSY 1973-02-26 18:00:00 ET -34.8000 69.0000 reunion spur-split 1557 1546 _____O______O_ -1 -34.8000 69.0000 99 9.90000 -34.8000 69.0000 EX 40 10 114
1973057S31062 1973 26 SI MM JESSY 1973-02-26 21:00:00 ET -34.9375 69.5577 spur-split 1546 1536 _____P______P_ -1 -34.9375 69.5577 99 -34.9375 69.5577 EX 37 9 103
1973057S31062 1973 26 SI MM JESSY 1973-02-27 00:00:00 ET -35.0000 70.1000 reunion spur-split 1537 1537 _____O______O_ -1 -35.0000 70.1000 99 9.90000 -35.0000 70.1000 EX 35 8 95
1973057S31062 1973 26 SI MM JESSY 1973-02-27 03:00:00 ET -35.0071 70.5579 spur-split 1540 1540 _____P______P_ -1 -35.0071 70.5579 99 -35.0071 70.5579 EX 35 7 90
1973057S31062 1973 26 SI MM JESSY 1973-02-27 06:00:00 ET -35.0000 71.0000 reunion spur-split 1543 1543 _____O______O_ -1 -35.0000 71.0000 5 9.90000 -35.0000 71.0000 EX 35 8 93
1973057S31062 1973 26 SI MM JESSY 1973-02-27 09:00:00 ET -35.0424 71.4924 spur-split 1548 1538 _____P______P_ -1 -35.0424 71.4924 5 -35.0424 71.4924 EX 35 8 97
1973057S31062 1973 26 SI MM JESSY 1973-02-27 12:00:00 ET -35.1000 72.0000 reunion spur-split 1543 1543 _____O______O_ -1 -35.1000 72.0000 99 9.90000 -35.1000 72.0000 EX 35 8 96
1973057S31062 1973 26 SI MM JESSY 1973-02-27 15:00:00 ET -35.1272 72.4930 spur-split 1550 1542 _____P______P_ -1 -35.1272 72.4930 99 -35.1272 72.4930 EX 35 8 97
1973057S31062 1973 26 SI MM JESSY 1973-02-27 18:00:00 ET -35.2000 73.0000 reunion spur-split 1547 1534 _____O______O_ -1 -35.2000 73.0000 99 9.90000 -35.2000 73.0000 EX 35 9 106
1973057S31062 1973 26 SI MM JESSY 1973-02-27 21:00:00 ET -35.3775 73.5572 spur-split 1536 1523 _____P______P_ -1 -35.3775 73.5572 99 -35.3775 73.5572 EX 32 10 114
1973057S31062 1973 26 SI MM JESSY 1973-02-28 00:00:00 ET -35.6000 74.1000 reunion spur-split 1525 1515 _____O______O_ -1 -35.6000 74.1000 99 9.90000 -35.6000 74.1000 EX 30 10 115
1973057S31062 1973 26 SI MM JESSY 1973-02-28 03:00:00 ET -35.7926 74.6323 spur-split 1515 1499 _____P______P_ -1 -35.7926 74.6323 99 -35.7926 74.6323 EX 30 8 119
1973057S31062 1973 26 SI MM JESSY 1973-02-28 06:00:00 ET -36.0000 75.0000 reunion spur-split 1501 1481 _____O______O_ -1 -36.0000 75.0000 5 9.90000 -36.0000 75.0000 EX 30 6 141
1973057S31062 1973 26 SI MM JESSY 1973-02-28 09:00:00 ET -36.2422 75.0755 spur-split 1481 1447 _____P______P_ -1 -36.2422 75.0755 5 -36.2422 75.0755 EX 30 5 178
1973057S31062 1973 26 SI MM JESSY 1973-02-28 12:00:00 ET -36.5000 75.0000 reunion spur-split 1447 1425 _____O______O_ -1 -36.5000 75.0000 99 9.90000 -36.5000 75.0000 EX 30 5 191
1973057S31062 1973 26 SI MM JESSY 1973-02-28 15:00:00 ET -36.7425 74.9575 spur-split 1425 1391 _____P______P_ -1 -36.7425 74.9575 99 -36.7425 74.9575 EX 30 5 189
1973057S31062 1973 26 SI MM JESSY 1973-02-28 18:00:00 ET -37.0000 74.9000 reunion spur-split 1391 1356 _____O______O_ -1 -37.0000 74.9000 99 9.90000 -37.0000 74.9000 EX 30 6 191
1973057S31062 1973 26 SI MM JESSY 1973-02-28 21:00:00 ET -37.3075 74.8277 spur-split 1356 1324 _____P______P_ -1 -37.3075 74.8277 99 -37.3075 74.8277 EX 30 6 188
1973057S31062 1973 26 SI MM JESSY 1973-03-01 00:00:00 ET -37.6000 74.8000 reunion spur-split 1324 1300 _____O______O_ -1 -37.6000 74.8000 99 9.90000 -37.6000 74.8000 EX 30 5 188
1973057S31062 1973 26 SI MM JESSY 1973-03-01 03:00:00 ET -37.7836 74.7444 spur-split 1300 1283 _____P______P_ -1 -37.7836 74.7444 99 -37.7836 74.7444 EX 30 4 159
1973057S31062 1973 26 SI MM JESSY 1973-03-01 06:00:00 ET -38.0000 75.0000 reunion spur-split 1285 1259 _____O______O_ -1 -38.0000 75.0000 5 9.90000 -38.0000 75.0000 EX 30 10 127
1973057S31062 1973 26 SI MM JESSY 1973-03-01 09:00:00 ET -38.3992 75.7882 spur-split 1262 1250 _____P______P_ -1 -38.3992 75.7882 5 -38.3992 75.7882 EX 30 18 117
1973057S31062 1973 26 SI MM JESSY 1973-03-01 12:00:00 ET -38.8000 77.0000 reunion spur-split 1255 1255 _____O______O_ -1 -38.8000 77.0000 99 9.90000 -38.8000 77.0000 EX 30 21 107
1973057S31062 1973 26 SI MM JESSY 1973-03-01 15:00:00 ET -39.0049 78.3545 spur-split 1285 1285 _____P______P_ -1 -39.0049 78.3545 99 -39.0049 78.3545 EX 30 24 100
1973057S31062 1973 26 SI MM JESSY 1973-03-01 18:00:00 ET -39.2000 80.0000 reunion spur-split 1332 1332 _____O______O_ -1 -39.2000 80.0000 99 9.90000 -39.2000 80.0000 EX 30 29 101
1973057S31062 1973 26 SI MM JESSY 1973-03-01 21:00:00 ET -39.5761 81.9949 spur-split 1391 1391 _____P______P_ -1 -39.5761 81.9949 99 -39.5761 81.9949 EX 30 32 103
1973057S31062 1973 26 SI MM JESSY 1973-03-02 00:00:00 ET -39.9000 84.0000 spur-split 1473 1473 _____O______O_ -1 -39.9000 84.0000 99 9.90000 -39.9000 84.0000 EX 30 28 99
1973057S31062 1973 26 SI MM JESSY 1973-03-02 03:00:00 ET -40.0165 85.6289 spur-split 1558 1558 _____P______P_ -1 -40.0165 85.6289 99 -40.0165 85.6289 EX 27 23 92
1973057S31062 1973 26 SI MM JESSY 1973-03-02 06:00:00 MX -40.0000 87.0000 spur-split 1643 _____O______O_ -1 -40.0000 87.0000 6 9.90000 -40.0000 87.0000 EX 25 21 89

About IBTrACS Database

This database is a web-friendly format of International Best Track Archive for Climate Stewardship (IBTrACS), a global best track data archive curated by NOAA dating back to 1842.

Updated: 2021-12-03